Time;durP1;ratioP1;P1;durP2;ratioP2;P2;SDS_P1;SDS_P2;PMS_P1;PMS_P2;Temp;Humidity;BMP_temperature;BMP_pressure;BME280_temperature;BME280_humidity;BME280_pressure;Samples;Min_cycle;Max_cycle;Signal;HPM_P1;HPM_P2
2022/08/27 00:02:09;;;;;;;8.63;2.83;;;14.80;99.90;;;;;;5133611;27;20506;-83
2022/08/27 00:04:53;;;;;;;6.45;2.88;;;14.80;99.90;;;;;;5149550;27;20052;-83
2022/08/27 00:07:39;;;;;;;5.15;2.85;;;14.80;99.90;;;;;;5132797;27;20057;-83
2022/08/27 00:10:26;;;;;;;8.48;3.28;;;14.70;99.90;;;;;;5134596;27;20095;-83
2022/08/27 00:13:10;;;;;;;7.13;2.60;;;14.70;99.90;;;;;;5134336;27;20164;-83
2022/08/27 00:15:54;;;;;;;6.75;3.08;;;14.40;99.90;;;;;;5134843;27;20038;-83
2022/08/27 00:18:40;;;;;;;8.05;2.72;;;14.40;99.90;;;;;;5134804;27;20095;-83
2022/08/27 00:21:25;;;;;;;8.80;2.85;;;14.50;99.90;;;;;;5131814;27;20140;-82
2022/08/27 00:24:11;;;;;;;9.60;4.15;;;14.30;99.90;;;;;;5103317;28;20038;-83
2022/08/27 00:26:55;;;;;;;7.40;4.13;;;;;;;;;;5098998;27;20098;-83
2022/08/27 00:29:40;;;;;;;7.30;3.35;;;;;;;;;;5113929;27;20070;-88
2022/08/27 00:32:24;;;;;;;11.02;3.20;;;14.50;99.90;;;;;;5125148;27;20038;-83
2022/08/27 00:35:09;;;;;;;10.07;2.53;;;14.20;99.90;;;;;;5127765;27;20030;-83
2022/08/27 00:37:54;;;;;;;8.48;3.10;;;14.40;99.90;;;;;;5110474;27;20068;-83
2022/08/27 00:40:39;;;;;;;8.10;3.25;;;14.30;99.90;;;;;;5112311;28;20077;-83
2022/08/27 00:43:30;;;;;;;10.85;3.30;;;14.20;99.90;;;;;;5117561;27;20494;-83
2022/08/27 00:46:24;;;;;;;11.30;4.30;;;14.30;99.90;;;;;;5113240;28;20076;-83
2022/08/27 00:49:14;;;;;;;7.90;3.10;;;14.20;99.90;;;;;;5126643;27;20031;-83
2022/08/27 00:52:06;;;;;;;6.35;3.00;;;14.00;99.90;;;;;;5129136;27;20050;-83
2022/08/27 00:54:55;;;;;;;8.10;3.22;;;14.10;99.90;;;;;;5134027;27;20482;-84
2022/08/27 00:57:41;;;;;;;6.60;3.40;;;14.10;99.90;;;;;;5119570;27;20451;-83
2022/08/27 01:00:26;;;;;;;5.80;3.08;;;14.30;99.90;;;;;;5133628;27;20204;-83
2022/08/27 01:03:11;;;;;;;8.48;3.42;;;;;;;;;;5133502;27;20041;-83
2022/08/27 01:06:00;;;;;;;8.00;3.22;;;13.90;99.90;;;;;;5129426;27;20076;-84
2022/08/27 01:08:52;;;;;;;9.38;3.90;;;14.00;99.90;;;;;;5127049;27;20046;-82
2022/08/27 01:11:37;;;;;;;10.82;3.75;;;;;;;;;;5133824;27;20079;-82
2022/08/27 01:14:22;;;;;;;8.68;3.88;;;13.80;99.90;;;;;;5133199;27;20083;-82
2022/08/27 01:17:09;;;;;;;10.10;3.83;;;13.80;99.90;;;;;;5122209;27;20038;-85
2022/08/27 01:19:57;;;;;;;7.35;3.75;;;13.80;99.90;;;;;;5119392;27;20045;-83
2022/08/27 01:22:50;;;;;;;8.02;3.90;;;13.80;99.90;;;;;;5133415;27;20493;-83
2022/08/27 01:25:36;;;;;;;10.20;3.80;;;;;;;;;;5133352;27;20035;-83
2022/08/27 01:28:21;;;;;;;8.82;4.38;;;13.90;99.90;;;;;;5132995;27;20038;-83
2022/08/27 01:31:07;;;;;;;8.38;3.50;;;13.70;99.90;;;;;;5133354;27;20083;-83
2022/08/27 01:34:01;;;;;;;9.18;3.95;;;13.30;99.90;;;;;;5124295;27;20085;-82
2022/08/27 01:36:45;;;;;;;9.93;4.38;;;;;;;;;;5132066;27;20030;-82
2022/08/27 01:39:30;;;;;;;9.40;3.95;;;13.60;99.90;;;;;;5119031;27;20042;-83
2022/08/27 01:42:17;;;;;;;7.55;3.72;;;13.70;99.90;;;;;;5120543;28;20493;-82
2022/08/27 01:45:06;;;;;;;9.38;4.18;;;13.40;99.90;;;;;;5115632;28;20121;-82
2022/08/27 01:47:51;;;;;;;9.63;3.72;;;13.50;99.90;;;;;;5112711;28;20172;-82
2022/08/27 01:50:38;;;;;;;8.00;3.72;;;14.00;99.90;;;;;;5119193;28;20034;-81
2022/08/27 01:53:24;;;;;;;8.65;4.32;;;13.40;99.90;;;;;;5132822;28;20042;-82
2022/08/27 01:56:10;;;;;;;6.65;4.05;;;13.50;99.90;;;;;;5134414;27;20498;-82
2022/08/27 01:58:54;;;;;;;11.35;4.03;;;13.40;99.90;;;;;;5154134;27;20077;-81
2022/08/27 02:01:38;;;;;;;8.13;4.05;;;;;;;;;;5133819;27;20047;-82
2022/08/27 02:04:23;;;;;;;12.70;4.18;;;13.50;99.90;;;;;;5143412;27;20138;-82
2022/08/27 02:07:08;;;;;;;11.50;4.28;;;13.50;99.90;;;;;;5132542;27;20061;-82
2022/08/27 02:09:52;;;;;;;12.27;4.28;;;13.30;99.90;;;;;;5157644;27;20037;-83
2022/08/27 02:12:36;;;;;;;6.90;4.10;;;;;;;;;;5157215;27;20069;-83
2022/08/27 02:15:23;;;;;;;9.00;4.50;;;13.20;99.90;;;;;;5135181;27;20069;-82
2022/08/27 02:18:07;;;;;;;13.98;4.50;;;13.60;99.90;;;;;;5121812;27;20038;-83
2022/08/27 02:20:52;;;;;;;10.27;3.63;;;;;;;;;;5136898;27;20046;-85
2022/08/27 02:23:37;;;;;;;8.55;4.57;;;13.10;99.90;;;;;;5120918;27;20053;-81
2022/08/27 02:26:22;;;;;;;11.20;4.07;;;13.50;99.90;;;;;;5136250;27;20092;-83
2022/08/27 02:29:07;;;;;;;8.18;4.00;;;;;;;;;;5136951;27;20041;-82
2022/08/27 02:31:51;;;;;;;9.05;4.07;;;13.60;99.90;;;;;;5136812;27;20080;-81
2022/08/27 02:34:35;;;;;;;7.05;3.80;;;14.00;99.90;;;;;;5121478;27;20548;-82
2022/08/27 02:37:21;;;;;;;8.02;3.88;;;;;;;;;;5126259;27;20043;-88
2022/08/27 02:40:07;;;;;;;9.70;4.53;;;13.30;99.90;;;;;;5134776;27;20514;-81
2022/08/27 02:42:52;;;;;;;7.40;3.97;;;;;;;;;;5123076;27;20169;-81
2022/08/27 02:45:36;;;;;;;7.00;3.85;;;;;;;;;;5115549;28;20177;-82
2022/08/27 02:48:21;;;;;;;8.90;4.57;;;;;;;;;;5115515;27;20039;-86
2022/08/27 02:51:07;;;;;;;9.27;3.60;;;13.20;99.90;;;;;;5127314;27;20046;-82
2022/08/27 02:53:51;;;;;;;6.65;3.60;;;;;;;;;;5136190;27;20532;-82
2022/08/27 02:56:36;;;;;;;7.43;3.80;;;13.20;99.90;;;;;;5120362;27;20066;-84
2022/08/27 02:59:21;;;;;;;5.68;3.45;;;;;;;;;;5136128;27;20049;-88
2022/08/27 03:02:06;;;;;;;8.70;3.58;;;;;;;;;;5117983;27;20056;-82
2022/08/27 03:04:50;;;;;;;5.65;3.33;;;13.10;99.90;;;;;;5127786;27;20038;-82
2022/08/27 03:07:35;;;;;;;7.05;3.58;;;13.10;99.90;;;;;;5135543;27;20042;-83
2022/08/27 03:10:20;;;;;;;8.23;3.65;;;13.20;99.90;;;;;;5134571;27;20084;-83
2022/08/27 03:13:05;;;;;;;7.05;3.15;;;;;;;;;;5099893;28;20042;-82
2022/08/27 03:15:49;;;;;;;11.48;3.20;;;13.80;99.90;;;;;;5133637;27;20115;-83
2022/08/27 03:18:34;;;;;;;5.40;2.83;;;;;;;;;;5108546;27;20100;-84
2022/08/27 03:21:22;;;;;;;8.30;4.18;;;13.30;99.90;;;;;;5121254;27;20141;-82
2022/08/27 03:24:06;;;;;;;8.50;3.20;;;12.40;99.90;;;;;;5135874;27;20042;-82
2022/08/27 03:26:51;;;;;;;9.07;3.55;;;13.50;99.90;;;;;;5127585;27;20120;-83
2022/08/27 03:29:35;;;;;;;8.65;3.22;;;;;;;;;;5130199;27;20513;-83
2022/08/27 03:32:20;;;;;;;8.93;4.05;;;;;;;;;;5155938;27;20081;-83
2022/08/27 03:35:05;;;;;;;7.55;2.58;;;13.70;99.90;;;;;;5156073;27;20053;-83
2022/08/27 03:37:50;;;;;;;7.38;2.55;;;13.40;99.90;;;;;;5139730;27;20033;-83
2022/08/27 03:40:34;;;;;;;5.07;2.85;;;13.40;99.90;;;;;;5155558;27;20103;-84
2022/08/27 03:43:20;;;;;;;6.22;3.25;;;13.70;99.90;;;;;;5156171;27;20079;-83
2022/08/27 03:46:06;;;;;;;10.25;3.25;;;13.50;99.90;;;;;;5155853;27;20078;-82
2022/08/27 03:48:50;;;;;;;6.00;3.05;;;;;;;;;;5155425;27;20042;-82
2022/08/27 03:51:35;;;;;;;6.82;3.40;;;;;;;;;;5116078;27;20038;-83
2022/08/27 03:54:19;;;;;;;9.75;3.38;;;13.50;99.90;;;;;;5142855;27;20083;-82
2022/08/27 03:57:04;;;;;;;8.70;3.35;;;13.50;99.90;;;;;;5141857;27;20054;-82
2022/08/27 03:59:48;;;;;;;6.82;3.10;;;;;;;;;;5125405;27;20042;-82
2022/08/27 04:02:33;;;;;;;6.88;2.95;;;;;;;;;;5143742;27;20123;-82
2022/08/27 04:05:17;;;;;;;6.28;3.13;;;;;;;;;;5125281;27;20038;-82
2022/08/27 04:08:02;;;;;;;5.70;3.70;;;13.00;99.90;;;;;;5155173;27;20086;-82
2022/08/27 04:10:46;;;;;;;6.75;3.13;;;13.70;99.90;;;;;;5128192;27;20037;-83
2022/08/27 04:13:31;;;;;;;9.23;3.20;;;;;;;;;;5151758;27;20403;-87
2022/08/27 04:16:15;;;;;;;5.22;2.85;;;13.20;99.90;;;;;;5130710;27;20058;-82
2022/08/27 04:19:00;;;;;;;5.85;3.20;;;13.40;99.90;;;;;;5111701;27;20535;-82
2022/08/27 04:21:44;;;;;;;5.78;2.78;;;13.20;99.90;;;;;;5134148;27;20038;-83
2022/08/27 04:24:31;;;;;;;5.65;3.00;;;13.30;99.90;;;;;;5134645;27;20049;-82
2022/08/27 04:27:15;;;;;;;9.18;3.83;;;;;;;;;;5134773;27;20066;-82
2022/08/27 04:30:00;;;;;;;11.07;3.47;;;;;;;;;;5134318;27;20038;-82
2022/08/27 04:32:45;;;;;;;5.10;3.05;;;;;;;;;;5118521;27;20048;-83
2022/08/27 04:35:30;;;;;;;6.88;3.10;;;;;;;;;;5126008;27;20507;-82
2022/08/27 04:38:14;;;;;;;7.03;2.97;;;;;;;;;;5131124;27;20198;-82
2022/08/27 04:41:26;;;;;;;6.55;3.20;;;13.30;99.90;;;;;;5118369;27;20050;-82
2022/08/27 04:44:11;;;;;;;9.23;3.10;;;13.20;99.90;;;;;;5134337;27;20114;-82
2022/08/27 04:47:02;;;;;;;9.45;3.47;;;13.30;99.90;;;;;;5119314;27;20038;-82
2022/08/27 04:49:47;;;;;;;7.78;3.40;;;13.30;99.90;;;;;;5119244;27;20081;-86
2022/08/27 04:52:32;;;;;;;6.32;2.85;;;13.40;99.90;;;;;;5122563;27;20054;-83
2022/08/27 04:55:16;;;;;;;9.05;3.42;;;13.30;99.90;;;;;;5114519;27;20113;-82
2022/08/27 04:58:00;;;;;;;8.75;2.95;;;;;;;;;;5097697;28;20051;-81
2022/08/27 05:00:47;;;;;;;7.50;2.90;;;13.10;99.90;;;;;;5119546;27;20044;-81
2022/08/27 05:03:32;;;;;;;6.57;3.30;;;;;;;;;;5133841;27;20398;-81
2022/08/27 05:06:16;;;;;;;7.18;3.13;;;;;;;;;;5134101;27;20443;-80
2022/08/27 05:09:01;;;;;;;6.82;3.67;;;13.10;99.90;;;;;;5133478;27;20038;-80
2022/08/27 05:11:46;;;;;;;7.78;3.22;;;;;;;;;;5117830;27;20092;-81
2022/08/27 05:14:31;;;;;;;9.95;3.08;;;13.20;99.90;;;;;;5133789;27;20104;-81
2022/08/27 05:17:16;;;;;;;8.10;3.40;;;;;;;;;;5124335;27;20110;-81
2022/08/27 05:20:00;;;;;;;8.73;3.00;;;;;;;;;;5120022;27;20038;-81
2022/08/27 05:22:45;;;;;;;5.93;3.10;;;;;;;;;;5117083;27;20544;-81
2022/08/27 05:25:29;;;;;;;7.80;3.35;;;13.30;99.90;;;;;;5112944;27;20536;-78
2022/08/27 05:28:15;;;;;;;7.93;3.28;;;13.20;99.90;;;;;;5127482;27;20090;-77
2022/08/27 05:31:05;;;;;;;8.10;3.15;;;13.20;99.90;;;;;;5110956;28;20049;-79
2022/08/27 05:33:49;;;;;;;7.95;3.17;;;13.60;99.90;;;;;;5120894;27;20034;-83
2022/08/27 05:36:35;;;;;;;10.07;3.25;;;;;;;;;;5126400;27;20042;-83
2022/08/27 05:39:20;;;;;;;5.80;3.00;;;;;;;;;;5140970;27;20057;-82
2022/08/27 05:42:04;;;;;;;8.38;3.30;;;13.70;99.90;;;;;;5148333;27;20057;-83
2022/08/27 05:44:49;;;;;;;6.15;3.63;;;13.70;99.90;;;;;;5140733;27;20053;-82
2022/08/27 05:47:33;;;;;;;7.75;2.97;;;13.90;99.90;;;;;;5143689;27;20045;-84
2022/08/27 05:50:18;;;;;;;7.38;3.15;;;;;;;;;;5125878;27;20088;-83
2022/08/27 05:53:02;;;;;;;7.13;2.95;;;14.00;99.90;;;;;;5134484;27;20509;-82
2022/08/27 05:55:46;;;;;;;7.65;2.90;;;14.00;99.90;;;;;;5135367;27;20042;-84
2022/08/27 06:01:42;;;;;;;9.13;3.10;;;14.70;99.90;;;;;;5120102;27;20070;-83
2022/08/27 06:04:27;;;;;;;6.82;2.92;;;;;;;;;;5132760;27;20114;-83
2022/08/27 06:07:12;;;;;;;6.38;2.92;;;14.80;99.90;;;;;;5135244;27;20517;-83
2022/08/27 06:09:57;;;;;;;6.78;2.90;;;14.90;99.90;;;;;;5118879;27;20045;-83
2022/08/27 06:12:42;;;;;;;5.53;2.60;;;15.00;99.90;;;;;;5143257;27;20037;-84
2022/08/27 06:15:26;;;;;;;7.60;2.35;;;14.80;99.90;;;;;;5130253;28;20042;-84
2022/08/27 06:18:12;;;;;;;6.13;2.50;;;;;;;;;;5141878;27;20091;-85
2022/08/27 06:20:56;;;;;;;5.22;2.80;;;15.20;99.90;;;;;;5137353;27;20079;-82
2022/08/27 06:23:41;;;;;;;6.20;2.20;;;16.30;99.90;;;;;;5127092;27;20111;-83
2022/08/27 06:26:26;;;;;;;6.97;3.30;;;15.60;99.90;;;;;;5121047;27;20063;-83
2022/08/27 06:29:12;;;;;;;4.88;2.40;;;15.80;99.90;;;;;;5147972;27;20092;-83
2022/08/27 06:31:56;;;;;;;6.45;2.92;;;15.90;99.90;;;;;;5129362;28;20033;-83
2022/08/27 06:34:40;;;;;;;5.50;2.05;;;16.20;99.90;;;;;;5128254;28;20038;-83
2022/08/27 06:37:26;;;;;;;9.90;2.38;;;16.40;99.90;;;;;;5107979;28;20047;-82
2022/08/27 06:40:10;;;;;;;8.02;2.60;;;16.40;99.90;;;;;;5125956;27;20404;-82
2022/08/27 06:42:54;;;;;;;7.47;2.53;;;16.80;99.90;;;;;;5130142;27;20080;-86
2022/08/27 06:45:39;;;;;;;6.78;2.65;;;;;;;;;;5132963;27;20493;-85
2022/08/27 06:48:23;;;;;;;5.93;2.38;;;16.80;99.90;;;;;;5146325;27;20083;-83
2022/08/27 06:51:16;;;;;;;6.38;2.30;;;17.10;99.90;;;;;;5154549;27;20033;-83
2022/08/27 06:54:03;;;;;;;6.45;2.08;;;17.20;99.90;;;;;;5126011;27;20030;-83
2022/08/27 06:56:48;;;;;;;4.97;2.00;;;17.20;99.90;;;;;;5135111;27;20160;-84
2022/08/27 06:59:33;;;;;;;5.75;2.10;;;17.40;99.90;;;;;;5136296;27;20562;-83
2022/08/27 07:02:17;;;;;;;5.65;2.13;;;17.50;99.90;;;;;;5107649;27;20045;-84
2022/08/27 07:05:02;;;;;;;5.60;2.13;;;17.50;99.90;;;;;;5135155;27;20038;-84
2022/08/27 07:07:46;;;;;;;7.28;2.20;;;17.60;99.90;;;;;;5135946;27;20531;-83
2022/08/27 07:10:31;;;;;;;5.50;2.05;;;17.60;99.90;;;;;;5128540;27;20045;-83
2022/08/27 07:13:15;;;;;;;7.13;2.28;;;17.90;99.90;;;;;;5135243;27;20030;-85
2022/08/27 07:16:13;;;;;;;4.88;1.70;;;17.90;99.90;;;;;;5133351;27;20092;-84
2022/08/27 07:19:00;;;;;;;6.05;2.00;;;18.00;99.90;;;;;;5127577;27;20073;-89
2022/08/27 07:21:44;;;;;;;5.18;2.10;;;;;;;;;;5122799;27;20513;-87
2022/08/27 07:24:29;;;;;;;6.03;1.70;;;18.40;99.90;;;;;;5132059;27;20425;-84
2022/08/27 07:27:13;;;;;;;8.23;2.38;;;;;;;;;;5110145;27;20069;-84
2022/08/27 07:29:58;;;;;;;4.82;1.52;;;19.10;99.90;;;;;;5102558;27;20054;-85
2022/08/27 07:32:44;;;;;;;4.63;1.60;;;19.20;99.90;;;;;;5133416;27;20038;-82
2022/08/27 07:35:28;;;;;;;9.27;1.88;;;19.50;99.90;;;;;;5134040;27;20092;-85
2022/08/27 07:38:12;;;;;;;6.28;1.77;;;19.40;99.90;;;;;;5134551;27;20800;-85
2022/08/27 07:40:57;;;;;;;8.73;2.42;;;19.70;99.90;;;;;;5135278;27;20046;-83
2022/08/27 07:46:45;;;;;;;3.15;1.77;;;19.60;99.90;;;;;;5127758;27;20525;-84
2022/08/27 07:49:30;;;;;;;5.80;1.95;;;20.00;99.90;;;;;;5127233;27;20444;-85
2022/08/27 07:52:15;;;;;;;7.45;1.90;;;19.90;99.90;;;;;;5124448;27;20043;-84
2022/08/27 07:55:00;;;;;;;10.68;3.20;;;;;;;;;;5113004;27;20130;-89
2022/08/27 07:57:46;;;;;;;7.18;2.28;;;;;;;;;;5128337;27;20042;-84
2022/08/27 08:00:31;;;;;;;7.03;2.30;;;20.50;99.90;;;;;;5122476;27;20049;-82
2022/08/27 08:03:16;;;;;;;7.57;1.90;;;;;;;;;;5115324;27;20119;-86
2022/08/27 08:06:10;;;;;;;6.38;1.95;;;21.50;99.90;;;;;;5135988;27;20035;-88
2022/08/27 08:08:55;;;;;;;7.78;1.83;;;21.70;99.90;;;;;;5117894;27;20875;-82
2022/08/27 08:11:40;;;;;;;5.57;1.70;;;;;;;;;;5136606;27;20506;-81
2022/08/27 08:14:24;;;;;;;8.27;1.85;;;21.70;99.90;;;;;;5126043;27;20056;-85
2022/08/27 08:17:09;;;;;;;6.28;1.50;;;;;;;;;;5139770;27;20046;-87
2022/08/27 08:19:55;;;;;;;5.50;1.67;;;20.90;99.90;;;;;;5129795;27;20045;-86
2022/08/27 08:22:40;;;;;;;8.75;1.95;;;;;;;;;;5143333;27;20087;-85
2022/08/27 08:25:24;;;;;;;5.63;1.40;;;;;;;;;;5115092;27;20541;-82
2022/08/27 08:28:10;;;;;;;7.45;1.90;;;20.60;99.90;;;;;;5096528;27;20096;-81
2022/08/27 08:30:56;;;;;;;8.95;2.15;;;20.70;99.90;;;;;;5125480;27;20088;-85
2022/08/27 08:33:41;;;;;;;3.80;1.40;;;;;;;;;;5130845;27;20077;-85
2022/08/27 08:36:25;;;;;;;6.70;1.80;;;;;;;;;;5147118;27;20078;-85
2022/08/27 08:39:10;;;;;;;6.47;1.48;;;;;;;;;;5146406;27;20452;-89
2022/08/27 08:41:58;;;;;;;10.20;1.90;;;20.10;99.90;;;;;;5147220;27;20171;-84
2022/08/27 08:44:48;;;;;;;9.38;1.73;;;20.10;99.90;;;;;;5147390;27;20123;-83
2022/08/27 08:48:10;;;;;;;5.50;1.67;;;20.00;99.90;;;;;;5111474;27;20497;-85
2022/08/27 08:51:02;;;;;;;5.20;1.38;;;19.90;99.90;;;;;;5129567;27;20042;-85
2022/08/27 08:54:04;;;;;;;8.48;2.40;;;20.00;99.90;;;;;;5147193;27;20079;-84
2022/08/27 08:57:02;;;;;;;8.30;2.63;;;19.80;99.90;;;;;;5146949;27;20041;-85
2022/08/27 09:00:00;;;;;;;10.45;1.95;;;20.30;99.90;;;;;;5137803;27;20050;-85
2022/08/27 09:02:52;;;;;;;8.63;1.85;;;20.30;99.90;;;;;;5145947;27;20764;-83
2022/08/27 09:05:41;;;;;;;9.35;1.95;;;20.40;99.90;;;;;;5146747;27;20146;-83
2022/08/27 09:08:39;;;;;;;5.47;1.27;;;20.60;99.90;;;;;;5145689;27;20069;-82
2022/08/27 09:11:23;;;;;;;6.40;1.60;;;;;;;;;;5146257;27;20045;-84
2022/08/27 09:14:32;;;;;;;11.27;1.77;;;20.80;99.90;;;;;;5144509;27;20073;-87
2022/08/27 09:17:17;;;;;;;6.18;1.80;;;;;;;;;;5124824;27;20100;-84
2022/08/27 09:20:04;;;;;;;6.68;1.77;;;21.00;99.90;;;;;;5104139;28;20092;-89
2022/08/27 09:23:15;;;;;;;5.80;1.75;;;21.40;99.90;;;;;;5119805;27;20042;-84
2022/08/27 09:25:59;;;;;;;12.55;1.75;;;21.70;99.90;;;;;;5111737;27;20139;-84
2022/08/27 09:31:55;;;;;;;4.05;1.17;;;21.70;99.90;;;;;;5122218;27;20403;-83
2022/08/27 09:37:24;;;;;;;6.97;1.67;;;22.00;99.90;;;;;;5734921;22;20416;-84
2022/08/27 09:40:10;;;;;;;7.00;1.67;;;;;;;;;;4991791;28;20045;-87
2022/08/27 09:43:03;;;;;;;5.95;1.50;;;22.20;99.50;;;;;;4992620;28;20041;-85
2022/08/27 09:45:51;;;;;;;6.30;1.40;;;22.20;99.90;;;;;;4976958;28;20065;-85
2022/08/27 09:48:36;;;;;;;8.63;3.08;;;22.50;99.90;;;;;;4992152;28;20549;-86
2022/08/27 09:51:26;;;;;;;7.30;1.40;;;22.70;99.80;;;;;;4980986;28;20037;-87
2022/08/27 09:54:11;;;;;;;5.68;1.65;;;;;;;;;;4977730;28;20061;-86
2022/08/27 09:56:59;;;;;;;6.65;1.58;;;22.70;99.50;;;;;;4977810;28;20165;-89
2022/08/27 09:59:52;;;;;;;7.10;1.60;;;22.70;98.30;;;;;;4958768;28;20088;-89
2022/08/27 10:02:49;;;;;;;;;;;22.50;97.50;;;;;;4977561;28;20072;-89
2022/08/27 10:05:53;;;;;;;5.78;2.00;;;22.20;97.70;;;;;;4977337;28;19964;-87
2022/08/27 10:08:44;;;;;;;5.78;1.23;;;21.90;97.30;;;;;;4991925;28;20496;-88
2022/08/27 10:11:32;;;;;;;7.25;1.42;;;;;;;;;;4977173;28;20042;-88
2022/08/27 10:14:20;;;;;;;7.47;1.63;;;;;;;;;;4977356;28;20037;-86
2022/08/27 10:17:05;;;;;;;4.05;1.40;;;;;;;;;;4976081;28;20042;-86
2022/08/27 10:20:19;;;;;;;9.98;1.63;;;21.50;97.60;;;;;;4991882;28;20037;-85
2022/08/27 10:23:16;;;;;;;7.43;1.83;;;;;;;;;;4981349;28;20045;-87
2022/08/27 10:26:28;;;;;;;5.13;1.42;;;21.70;98.60;;;;;;4981025;28;20394;-84
2022/08/27 10:29:35;;;;;;;7.03;1.60;;;21.90;99.00;;;;;;4985619;28;20073;-83
2022/08/27 10:32:51;;;;;;;4.95;1.30;;;22.00;98.00;;;;;;4995812;28;20161;-85
2022/08/27 10:35:46;;;;;;;5.80;1.98;;;22.10;97.30;;;;;;4978146;28;20426;-82
2022/08/27 10:38:31;;;;;;;7.68;1.55;;;;;;;;;;4995411;28;20057;-84
2022/08/27 10:41:23;;;;;;;6.43;1.65;;;22.10;99.90;;;;;;4980977;28;20033;-82
2022/08/27 10:44:07;;;;;;;12.05;1.80;;;;;;;;;;4995848;28;20456;-84
2022/08/27 10:47:42;;;;;;;10.77;1.80;;;22.40;96.30;;;;;;4979121;28;20097;-84
2022/08/27 10:50:29;;;;;;;;;;;22.30;96.80;;;;;;4898973;28;20040;-84
2022/08/27 10:53:16;;;;;;;6.63;1.90;;;;;;;;;;4987151;28;19917;-85
2022/08/27 10:56:12;;;;;;;8.45;1.77;;;22.00;96.70;;;;;;4995360;28;20448;-85
2022/08/27 10:59:17;;;;;;;6.28;1.58;;;21.70;97.50;;;;;;4994541;28;20417;-84
2022/08/27 11:02:17;;;;;;;5.10;1.63;;;;;;;;;;4968662;28;20097;-84
2022/08/27 11:05:11;;;;;;;8.88;1.42;;;21.40;98.40;;;;;;4986355;28;20037;-85
2022/08/27 11:08:00;;;;;;;5.18;1.40;;;;;;;;;;4994663;28;20107;-90
2022/08/27 11:10:49;;;;;;;6.35;1.80;;;21.40;99.20;;;;;;4967806;28;20134;-87
2022/08/27 11:13:45;;;;;;;11.35;1.88;;;;;;;;;;4994494;28;20445;-86
2022/08/27 11:16:46;;;;;;;6.40;1.48;;;21.40;98.30;;;;;;4966477;28;20037;-86
2022/08/27 11:19:39;;;;;;;7.05;1.58;;;;;;;;;;4994776;28;20041;-88
2022/08/27 11:22:29;;;;;;;6.88;1.65;;;;;;;;;;4978739;28;20076;-86
2022/08/27 11:25:45;;;;;;;6.85;1.50;;;21.50;98.70;;;;;;4992773;28;20393;-84
2022/08/27 11:28:30;;;;;;;7.03;1.90;;;;;;;;;;4993424;28;20057;-85
2022/08/27 11:31:26;;;;;;;6.72;1.70;;;;;;;;;;4992422;28;20100;-85
2022/08/27 11:34:14;;;;;;;7.65;1.85;;;;;;;;;;4994463;28;20601;-87
2022/08/27 11:37:12;;;;;;;6.30;1.70;;;;;;;;;;4991389;28;20116;-84
2022/08/27 11:40:22;;;;;;;6.65;1.67;;;22.40;97.70;;;;;;4993699;28;20118;-83
2022/08/27 11:43:09;;;;;;;9.98;1.75;;;23.10;96.40;;;;;;4994259;28;20085;-85
2022/08/27 11:46:02;;;;;;;7.90;1.60;;;23.20;94.40;;;;;;4993288;28;20452;-82
2022/08/27 11:49:00;;;;;;;5.22;1.70;;;23.10;94.50;;;;;;4979092;28;20107;-81
2022/08/27 11:52:03;;;;;;;9.68;2.20;;;22.80;94.70;;;;;;4993903;28;20038;-82
2022/08/27 11:54:57;;;;;;;8.38;1.65;;;22.60;95.20;;;;;;4993814;28;20033;-83
2022/08/27 11:57:43;;;;;;;5.75;1.25;;;;;;;;;;4994150;28;20053;-86
2022/08/27 12:00:32;;;;;;;7.30;1.80;;;22.20;99.90;;;;;;4994297;28;20053;-81
2022/08/27 12:03:33;;;;;;;8.40;1.98;;;22.20;99.90;;;;;;4991784;28;20076;-82
2022/08/27 12:06:25;;;;;;;8.38;1.98;;;22.00;96.20;;;;;;4993649;28;20100;-82
2022/08/27 12:09:18;;;;;;;8.65;1.70;;;22.00;99.90;;;;;;4993525;28;20092;-82
2022/08/27 12:12:20;;;;;;;7.05;1.50;;;22.10;96.70;;;;;;4973497;28;20402;-79
2022/08/27 12:15:21;;;;;;;4.78;1.40;;;22.20;96.60;;;;;;4992737;28;20176;-81
2022/08/27 12:18:23;;;;;;;8.23;1.40;;;22.60;96.20;;;;;;4993417;28;20489;-81
2022/08/27 12:21:34;;;;;;;6.38;1.50;;;22.70;94.80;;;;;;4987702;28;20049;-81
2022/08/27 12:24:19;;;;;;;6.57;1.98;;;;;;;;;;4982744;28;20057;-83
2022/08/27 12:27:23;;;;;;;5.78;1.65;;;23.30;99.90;;;;;;4965063;28;20080;-80
2022/08/27 12:30:10;;;;;;;6.80;1.10;;;;;;;;;;4993227;28;20701;-82
2022/08/27 12:32:58;;;;;;;6.28;1.98;;;22.90;92.30;;;;;;4969811;28;20086;-81
2022/08/27 12:35:52;;;;;;;3.42;1.30;;;23.50;99.80;;;;;;4991663;28;20493;-82
2022/08/27 12:38:49;;;;;;;7.70;1.50;;;23.60;90.80;;;;;;4989961;28;20133;-81
2022/08/27 12:41:38;;;;;;;5.60;1.20;;;24.10;90.30;;;;;;4988212;28;20037;-82
2022/08/27 12:44:30;;;;;;;5.32;1.20;;;24.10;89.60;;;;;;4992183;28;20082;-80
2022/08/27 12:47:15;;;;;;;5.82;1.38;;;;;;;;;;4993548;28;20041;-81
2022/08/27 12:50:00;;;;;;;3.90;1.05;;;23.50;89.60;;;;;;4993074;28;20045;-81
2022/08/27 12:52:45;;;;;;;7.07;1.27;;;;;;;;;;4993578;28;20037;-81
2022/08/27 12:55:44;;;;;;;6.50;1.73;;;24.30;99.20;;;;;;4993336;28;20096;-82
2022/08/27 12:58:38;;;;;;;6.57;2.03;;;24.50;99.90;;;;;;4993537;28;20402;-82
2022/08/27 13:01:48;;;;;;;6.28;1.33;;;24.10;99.00;;;;;;4993192;28;20046;-82
2022/08/27 13:04:38;;;;;;;4.20;1.20;;;24.70;88.00;;;;;;4992498;28;20097;-83
2022/08/27 13:07:28;;;;;;;5.82;1.85;;;24.50;85.70;;;;;;4990236;28;20041;-82
2022/08/27 13:10:16;;;;;;;5.35;1.42;;;24.40;87.00;;;;;;4992239;28;20377;-82
2022/08/27 13:13:04;;;;;;;46.63;6.10;;;;;;;;;;4991753;28;20451;-83
2022/08/27 13:15:55;;;;;;;4.85;1.55;;;24.80;86.60;;;;;;4992827;28;20162;-83
2022/08/27 13:18:40;;;;;;;8.43;1.40;;;;;;;;;;4992777;28;20474;-83
2022/08/27 13:21:31;;;;;;;5.57;1.45;;;25.10;84.00;;;;;;4993082;28;20037;-81
2022/08/27 13:24:30;;;;;;;6.65;1.73;;;24.90;84.00;;;;;;4971191;28;20064;-83
2022/08/27 13:27:15;;;;;;;15.75;2.67;;;;;;;;;;4992205;28;20109;-84
2022/08/27 13:30:05;;;;;;;5.05;1.15;;;24.40;84.40;;;;;;4989702;28;20113;-85
2022/08/27 13:32:50;;;;;;;5.07;1.30;;;;;;;;;;4961489;28;20038;-87
2022/08/27 13:35:36;;;;;;;3.95;0.90;;;;;;;;;;4976019;28;20037;-83
2022/08/27 13:38:22;;;;;;;4.00;1.13;;;24.80;82.90;;;;;;4971716;28;20061;-82
2022/08/27 13:41:21;;;;;;;3.78;1.10;;;24.90;82.00;;;;;;4972839;28;20069;-85
2022/08/27 13:44:13;;;;;;;5.65;1.20;;;25.20;90.90;;;;;;4970606;28;20030;-84
2022/08/27 13:47:04;;;;;;;6.05;1.35;;;25.10;81.40;;;;;;4958133;28;20106;-86
2022/08/27 13:49:59;;;;;;;5.20;1.20;;;24.90;80.80;;;;;;4963975;28;20045;-85
2022/08/27 13:56:25;;;;;;;4.88;1.08;;;24.30;82.30;;;;;;4975213;28;20485;-85
2022/08/27 13:59:13;;;;;;;5.47;1.58;;;24.20;84.00;;;;;;4976911;28;20509;-86
2022/08/27 14:01:58;;;;;;;6.00;1.48;;;;;;;;;;4977272;28;20503;-85
2022/08/27 14:04:45;;;;;;;7.28;1.70;;;;;;;;;;4977021;28;20167;-86
2022/08/27 14:07:34;;;;;;;9.57;1.70;;;;;;;;;;4989898;28;20502;-88
2022/08/27 14:10:24;;;;;;;5.93;1.38;;;;;;;;;;4976477;28;20038;-86
2022/08/27 14:13:24;;;;;;;4.80;1.27;;;23.50;95.40;;;;;;4989234;28;20541;-86
2022/08/27 14:16:30;;;;;;;4.82;1.08;;;23.60;95.40;;;;;;4976327;28;20057;-84
2022/08/27 14:19:29;;;;;;;9.13;1.70;;;23.60;95.00;;;;;;4976428;28;20521;-84
2022/08/27 14:22:14;;;;;;;4.78;1.17;;;23.90;86.90;;;;;;4976253;28;20045;-83
2022/08/27 14:24:59;;;;;;;5.47;1.25;;;;;;;;;;4989407;28;20070;-83
2022/08/27 14:27:44;;;;;;;4.38;1.20;;;24.10;84.00;;;;;;4989614;28;20093;-84
2022/08/27 14:30:30;;;;;;;6.10;1.52;;;;;;;;;;4975520;28;20590;-84
2022/08/27 14:33:15;;;;;;;5.25;1.17;;;24.40;82.50;;;;;;4975005;28;20038;-83
2022/08/27 14:35:59;;;;;;;5.65;1.30;;;;;;;;;;4975696;28;20061;-83
2022/08/27 14:38:46;;;;;;;3.97;1.00;;;;;;;;;;4988982;28;20082;-83
2022/08/27 14:41:32;;;;;;;5.88;1.10;;;;;;;;;;4976416;28;20038;-85
2022/08/27 14:44:16;;;;;;;4.15;1.30;;;;;;;;;;4975030;28;20041;-86
2022/08/27 14:47:02;;;;;;;7.75;1.42;;;23.50;83.30;;;;;;4975246;28;20502;-86
2022/08/27 14:49:46;;;;;;;5.03;1.55;;;;;;;;;;4976479;28;20041;-86
2022/08/27 14:52:31;;;;;;;7.32;1.75;;;;;;;;;;4975006;28;20033;-84
2022/08/27 14:55:18;;;;;;;5.28;1.15;;;23.70;84.90;;;;;;4975498;28;20058;-87
2022/08/27 14:58:02;;;;;;;5.68;1.52;;;;;;;;;;4976203;28;20049;-85
2022/08/27 15:00:48;;;;;;;5.03;1.73;;;;;;;;;;4976026;28;20030;-86
2022/08/27 15:03:36;;;;;;;5.05;1.38;;;23.20;86.50;;;;;;4961412;28;20081;-85
2022/08/27 15:06:22;;;;;;;7.88;1.48;;;;;;;;;;4975242;28;20042;-86
2022/08/27 15:09:06;;;;;;;5.65;1.55;;;;;;;;;;4975800;28;20091;-86
2022/08/27 15:11:55;;;;;;;6.25;1.35;;;23.10;86.60;;;;;;4975009;28;20045;-85
2022/08/27 15:14:42;;;;;;;5.82;1.73;;;;;;;;;;4948518;28;20046;-88
2022/08/27 15:17:26;;;;;;;9.55;2.22;;;;;;;;;;4974226;28;20054;-85
2022/08/27 15:20:15;;;;;;;5.15;1.23;;;23.10;86.10;;;;;;4974372;28;20122;-88
2022/08/27 15:23:01;;;;;;;8.23;1.50;;;;;;;;;;4975651;28;20041;-85
2022/08/27 15:25:45;;;;;;;4.07;1.38;;;;;;;;;;4988548;28;20154;-83
2022/08/27 15:28:33;;;;;;;6.60;1.50;;;;;;;;;;4974168;28;20458;-85
2022/08/27 15:31:18;;;;;;;8.93;1.55;;;22.80;87.30;;;;;;4973999;28;20170;-85
2022/08/27 15:34:03;;;;;;;5.82;1.20;;;;;;;;;;4988422;28;20074;-85